SBJP/JPA METAR and TAF weather

Enter ICAO airport designator
Station Type Date Time Source
SBJP METAR 2022/07/03 14:00 UTC NOAA

SBJP 031400Z 12016KT 3000 -RA BKN010 FEW025TCU BKN070 23/23 Q1018


Station Type Date Time Source
SBJP Decoded METAR 2022/07/03 14:00 UTC NOAA

Joao Pessoa, Brazil (SBJP) 07-06S 034-52W
Jul 03, 2022 - 10:00 AM EDT / 2022.07.03 1400 UTC
Wind: from the ESE (120 degrees) at 18 MPH (16 KT):0
Visibility: 1 mile(s):0
Sky conditions: mostly cloudy
Weather: light rain; Towering cumulus clouds observed
Temperature: 73 F (23 C)
Dew Point: 73 F (23 C)
Relative Humidity: 100%
Pressure (altimeter): 30.06 in. Hg (1018 hPa)
ob: SBJP 031400Z 12016KT 3000 -RA BKN010 FEW025TCU BKN070 23/23 Q1018
cycle: 14

Station Type Date Time Source
SBJP TAF 2022/07/03 18:03 UTC NOAA

TAF TAF SBJP 031500Z 0318/0418 13010KT 9999 SCT020 TN22/0407Z TX29/0416Z PROB30 0318/0323 5000 RA BKN010
BECMG 0400/0402 18005KT PROB30 0408/0410 21005KT 4000 RA BKN010
BECMG 0414/0416 14010KT BKN020
RMK PHD

Example: see airport list